createdAt,value
2023-01-04T00:01:52.893Z,9.02
2023-01-04T00:04:19.606Z,3.75
2023-01-04T00:06:46.175Z,3.00
2023-01-04T00:09:12.715Z,5.05
2023-01-04T00:11:39.344Z,2.55
2023-01-04T00:14:05.859Z,5.18
2023-01-04T00:16:32.508Z,4.40
2023-01-04T00:18:59.203Z,2.72
2023-01-04T00:21:28.551Z,2.95
2023-01-04T00:23:58.019Z,3.92
2023-01-04T00:26:28.632Z,3.55
2023-01-04T00:28:58.645Z,2.92
2023-01-04T00:33:55.428Z,4.72
2023-01-04T00:36:22.389Z,3.47
2023-01-04T00:39:07.384Z,4.57
2023-01-04T00:44:14.302Z,2.92
2023-01-04T00:46:41.679Z,1.52
2023-01-04T00:49:09.879Z,1.83
2023-01-04T00:51:38.176Z,5.93
2023-01-04T00:54:06.358Z,3.50
2023-01-04T00:56:34.881Z,2.38
2023-01-04T00:59:03.386Z,5.35
2023-01-04T01:01:31.755Z,0.88
2023-01-04T01:04:01.722Z,1.48
2023-01-04T01:06:30.102Z,2.47
2023-01-04T01:08:57.606Z,2.08
2023-01-04T01:11:24.392Z,1.55
2023-01-04T01:13:51.804Z,2.38
2023-01-04T01:16:44.276Z,1.13
2023-01-04T01:19:08.843Z,2.80
2023-01-04T01:21:35.567Z,0.73
2023-01-04T01:24:02.154Z,0.73
2023-01-04T01:26:28.704Z,0.45
2023-01-04T01:28:55.276Z,1.77
2023-01-04T01:31:24.572Z,2.53
2023-01-04T01:33:54.326Z,2.15
2023-01-04T01:36:22.868Z,0.95
2023-01-04T01:38:49.801Z,2.47
2023-01-04T01:41:24.423Z,1.17
2023-01-04T01:49:32.614Z,1.42
2023-01-04T01:52:03.886Z,0.77
2023-01-04T01:54:34.593Z,0.82
2023-01-04T01:57:05.051Z,2.08
2023-01-04T01:59:34.258Z,1.58
2023-01-04T02:02:01.138Z,1.13
2023-01-04T02:04:28.020Z,1.40
2023-01-04T02:06:57.878Z,0.65
2023-01-04T02:09:24.958Z,0.50
2023-01-04T02:11:51.503Z,0.50
2023-01-04T02:14:27.659Z,0.70
2023-01-04T02:22:57.143Z,1.60
2023-01-04T02:44:59.482Z,0.55
2023-01-04T02:47:50.749Z,0.55
2023-01-04T02:53:06.311Z,2.15
2023-01-04T03:04:08.484Z,0.90
2023-01-04T03:06:47.581Z,0.52
2023-01-04T03:09:23.036Z,2.03
2023-01-04T03:12:16.552Z,0.10
2023-01-04T03:14:51.216Z,0.22
2023-01-04T03:17:21.840Z,0.60
2023-01-04T03:19:52.109Z,1.17
2023-01-04T03:25:22.803Z,0.98
2023-01-04T03:28:12.231Z,1.38
2023-01-04T03:31:08.018Z,1.77
2023-01-04T03:33:54.849Z,2.10
2023-01-04T03:39:30.857Z,0.70
2023-01-04T03:42:28.343Z,0.98
2023-01-04T03:45:52.866Z,0.60
2023-01-04T03:53:53.035Z,1.23
2023-01-04T03:56:22.748Z,1.08
2023-01-04T03:58:51.101Z,1.38
2023-01-04T04:01:20.286Z,0.95
2023-01-04T04:04:07.440Z,0.57
2023-01-04T04:06:54.095Z,0.50
2023-01-04T04:09:20.893Z,0.73
2023-01-04T04:11:47.742Z,1.75
2023-01-04T04:14:14.410Z,2.00
2023-01-04T04:16:41.722Z,0.73
2023-01-04T04:19:09.150Z,2.08
2023-01-04T04:21:36.194Z,1.02
2023-01-04T04:24:03.125Z,1.13
2023-01-04T04:26:29.731Z,1.70
2023-01-04T04:28:56.293Z,0.52
2023-01-04T04:31:22.937Z,0.32
2023-01-04T04:33:49.481Z,0.80
2023-01-04T04:36:16.188Z,3.55
2023-01-04T04:38:42.829Z,0.63
2023-01-04T04:41:33.051Z,0.22
2023-01-04T04:43:59.984Z,0.50
2023-01-04T04:46:26.995Z,0.90
2023-01-04T04:48:53.692Z,0.45
2023-01-04T04:51:20.464Z,1.90
2023-01-04T04:53:47.278Z,0.55
2023-01-04T04:56:13.946Z,0.50
2023-01-04T04:58:41.334Z,0.85
2023-01-04T05:01:08.521Z,0.57
2023-01-04T05:03:35.403Z,0.75
2023-01-04T05:06:02.769Z,0.35
2023-01-04T05:08:29.907Z,0.25
2023-01-04T05:10:56.488Z,1.13
2023-01-04T05:13:23.104Z,0.45
2023-01-04T05:15:52.856Z,0.38
2023-01-04T05:18:21.716Z,0.60
2023-01-04T05:20:49.157Z,0.35
2023-01-04T05:23:18.026Z,0.68
2023-01-04T05:25:44.711Z,0.57
2023-01-04T05:28:11.704Z,1.40
2023-01-04T05:30:55.759Z,0.65
2023-01-04T05:36:02.825Z,0.35
2023-01-04T05:38:30.415Z,0.30
2023-01-04T05:40:57.592Z,2.47
2023-01-04T05:43:24.794Z,0.95
2023-01-04T05:45:54.381Z,1.27
2023-01-04T05:48:22.293Z,1.10
2023-01-04T05:50:50.414Z,0.40
2023-01-04T05:53:18.420Z,1.95
2023-01-04T05:55:45.993Z,1.80
2023-01-04T05:58:12.595Z,2.85
2023-01-04T06:00:39.785Z,0.40
2023-01-04T06:03:06.916Z,0.40
2023-01-04T06:05:33.791Z,1.75
2023-01-04T06:08:00.934Z,0.47
2023-01-04T06:10:27.630Z,0.85
2023-01-04T06:12:54.208Z,0.55
2023-01-04T06:15:20.835Z,0.95
2023-01-04T06:17:47.481Z,2.08
2023-01-04T06:20:14.354Z,2.55
2023-01-04T06:22:41.515Z,1.17
2023-01-04T06:25:09.604Z,0.63
2023-01-04T06:27:36.623Z,0.68
2023-01-04T06:30:04.485Z,2.67
2023-01-04T06:32:31.316Z,1.80
2023-01-04T06:34:58.088Z,10.00
2023-01-04T06:37:24.710Z,4.38
2023-01-04T06:39:51.534Z,1.65
2023-01-04T06:42:38.053Z,2.50
2023-01-04T06:45:05.349Z,11.57
2023-01-04T06:47:31.922Z,2.40
2023-01-04T06:49:58.527Z,0.88
2023-01-04T06:52:25.237Z,1.40
2023-01-04T06:54:51.911Z,2.92
2023-01-04T06:57:18.688Z,1.58
2023-01-04T06:59:45.376Z,2.83
2023-01-04T07:02:15.322Z,5.95
2023-01-04T07:04:42.949Z,5.88
2023-01-04T07:07:10.452Z,3.10
2023-01-04T07:09:37.148Z,1.75
2023-01-04T07:12:04.007Z,3.97
2023-01-04T07:14:30.665Z,5.00
2023-01-04T07:16:57.331Z,4.53
2023-01-04T07:19:23.932Z,4.05
2023-01-04T07:21:50.547Z,2.67
2023-01-04T07:24:17.154Z,2.08
2023-01-04T07:26:43.684Z,1.83
2023-01-04T07:29:14.459Z,2.80
2023-01-04T07:31:41.899Z,2.78
2023-01-04T07:34:08.469Z,2.45
2023-01-04T07:36:35.058Z,1.17
2023-01-04T07:39:02.325Z,3.15
2023-01-04T07:41:28.912Z,3.55
2023-01-04T07:43:55.707Z,6.22
2023-01-04T07:46:22.426Z,5.32
2023-01-04T07:48:49.065Z,7.80
2023-01-04T07:51:16.089Z,5.30
2023-01-04T07:53:43.135Z,4.35
2023-01-04T07:56:13.772Z,3.88
2023-01-04T07:58:45.006Z,4.53
2023-01-04T08:01:15.360Z,4.68
2023-01-04T08:03:42.091Z,4.15
2023-01-04T08:06:11.429Z,8.38
2023-01-04T08:08:38.489Z,8.80
2023-01-04T08:11:08.374Z,6.30
2023-01-04T08:13:35.161Z,6.20
2023-01-04T08:16:01.858Z,9.43
2023-01-04T08:18:28.578Z,6.07
2023-01-04T08:21:10.769Z,4.88
2023-01-04T08:23:37.524Z,3.72
2023-01-04T08:26:11.112Z,6.22
2023-01-04T08:28:37.719Z,5.53
2023-01-04T08:31:07.962Z,7.47
2023-01-04T08:33:36.590Z,4.47
2023-01-04T08:36:08.542Z,8.52
2023-01-04T08:41:56.045Z,6.35
2023-01-04T08:44:08.444Z,6.18
2023-01-04T08:46:35.063Z,5.93
2023-01-04T08:49:01.613Z,4.78
2023-01-04T08:51:28.184Z,8.30
2023-01-04T08:53:54.787Z,7.95
2023-01-04T08:56:21.327Z,9.05
2023-01-04T08:58:47.877Z,6.70
2023-01-04T09:01:14.495Z,3.85
2023-01-04T09:03:42.092Z,8.70
2023-01-04T09:06:11.543Z,8.05
2023-01-04T09:08:40.138Z,8.27
2023-01-04T09:11:08.581Z,11.18
2023-01-04T09:13:36.540Z,8.02
2023-01-04T09:16:04.950Z,9.48
2023-01-04T09:18:32.905Z,7.43
2023-01-04T09:21:05.125Z,7.97
2023-01-04T09:23:31.765Z,7.78
2023-01-04T09:25:58.370Z,9.95
2023-01-04T09:28:24.914Z,6.20
2023-01-04T09:30:51.492Z,12.23
2023-01-04T09:33:18.091Z,6.20
2023-01-04T09:35:44.630Z,12.75
2023-01-04T09:38:11.181Z,16.80
2023-01-04T09:40:54.843Z,10.75
2023-01-04T09:43:23.649Z,10.55
2023-01-04T09:45:54.344Z,12.07
2023-01-04T09:48:27.267Z,8.07
2023-01-04T09:50:59.656Z,11.43
2023-01-04T09:56:14.518Z,15.20
2023-01-04T09:58:42.622Z,13.07
2023-01-04T10:01:31.334Z,9.45
2023-01-04T10:06:37.140Z,12.43
2023-01-04T10:09:10.612Z,8.88
2023-01-04T10:14:44.963Z,7.78
2023-01-04T10:26:34.898Z,14.02
2023-01-04T10:32:12.569Z,14.27
2023-01-04T10:34:42.791Z,6.47
2023-01-04T10:37:21.748Z,9.05
2023-01-04T10:39:55.207Z,8.18
2023-01-04T10:42:33.570Z,16.50
2023-01-04T10:48:06.151Z,14.15
2023-01-04T10:50:44.703Z,9.48
2023-01-04T10:53:21.826Z,12.80
2023-01-04T10:56:23.645Z,19.67
2023-01-04T11:02:07.092Z,11.88
2023-01-04T11:04:49.236Z,10.82
2023-01-04T11:07:22.080Z,8.95
2023-01-04T11:09:57.564Z,9.70
2023-01-04T11:12:24.196Z,14.38
2023-01-04T11:14:51.634Z,12.85
2023-01-04T11:17:21.396Z,9.88
2023-01-04T11:19:48.327Z,9.90
2023-01-04T11:22:24.741Z,14.43
2023-01-04T11:27:54.372Z,10.55
2023-01-04T11:30:24.892Z,10.63
2023-01-04T11:33:03.698Z,7.20
2023-01-04T11:35:42.861Z,7.93
2023-01-04T11:38:13.377Z,9.63
2023-01-04T11:40:41.312Z,14.55
2023-01-04T11:43:18.507Z,12.77
2023-01-04T11:45:58.234Z,8.43
2023-01-04T11:48:42.593Z,14.63
2023-01-04T11:51:18.924Z,7.53
2023-01-04T11:53:46.216Z,12.70
2023-01-04T11:59:22.645Z,13.60
2023-01-04T12:02:10.159Z,15.60
2023-01-04T12:04:36.819Z,15.63
2023-01-04T12:07:11.378Z,13.18
2023-01-04T12:09:37.917Z,9.20
2023-01-04T12:12:07.734Z,10.88
2023-01-04T12:14:40.762Z,13.65
2023-01-04T12:17:31.840Z,17.90
2023-01-04T12:20:03.858Z,16.77
2023-01-04T12:25:24.056Z,10.45
2023-01-04T12:27:52.055Z,7.90
2023-01-04T12:30:42.043Z,5.55
2023-01-04T12:39:03.007Z,4.43
2023-01-04T12:53:10.750Z,6.88
2023-01-04T13:01:10.691Z,6.50
2023-01-04T13:03:48.249Z,8.77
2023-01-04T13:06:20.728Z,6.65
2023-01-04T13:08:49.514Z,7.38
2023-01-04T13:11:36.155Z,9.85
2023-01-04T13:14:12.220Z,11.57
2023-01-04T13:17:16.332Z,6.88
2023-01-04T13:19:44.047Z,6.65
2023-01-04T13:22:34.071Z,6.03
2023-01-04T13:25:02.980Z,7.70
2023-01-04T13:27:29.615Z,9.77
2023-01-04T13:29:56.199Z,7.80
2023-01-04T13:32:28.454Z,8.25
2023-01-04T13:37:35.633Z,5.10
2023-01-04T13:42:42.249Z,9.95
2023-01-04T13:47:57.356Z,8.52
2023-01-04T13:53:06.752Z,5.68
2023-01-04T13:55:37.200Z,5.32
2023-01-04T13:58:07.210Z,5.88
2023-01-04T14:06:15.271Z,8.38
2023-01-04T14:13:59.308Z,10.88
2023-01-04T14:16:25.974Z,9.32
2023-01-04T14:18:52.668Z,9.82
2023-01-04T14:21:19.392Z,12.57
2023-01-04T14:23:46.056Z,8.50
2023-01-04T14:26:33.316Z,11.43
2023-01-04T14:29:21.493Z,8.27
2023-01-04T14:31:50.424Z,8.05
2023-01-04T14:34:17.006Z,9.70
2023-01-04T14:36:44.076Z,11.00
2023-01-04T14:39:18.671Z,5.35
2023-01-04T14:41:55.771Z,6.90
2023-01-04T14:44:25.643Z,12.02
2023-01-04T14:46:54.172Z,7.28
2023-01-04T14:49:22.339Z,11.38
2023-01-04T14:54:27.205Z,8.88
2023-01-04T14:56:55.247Z,14.80
2023-01-04T14:59:24.141Z,12.60
2023-01-04T15:01:52.222Z,8.65
2023-01-04T15:04:18.988Z,9.98
2023-01-04T15:06:49.481Z,8.70
2023-01-04T15:09:16.247Z,7.82
2023-01-04T15:11:42.893Z,10.85
2023-01-04T15:14:09.780Z,10.82
2023-01-04T15:16:36.388Z,5.00
2023-01-04T15:19:03.114Z,12.05
2023-01-04T15:21:31.847Z,15.32
2023-01-04T15:23:59.600Z,7.43
2023-01-04T15:26:26.186Z,6.07
2023-01-04T15:28:52.733Z,10.95
2023-01-04T15:31:24.076Z,8.68
2023-01-04T15:33:54.831Z,7.85
2023-01-04T15:36:23.998Z,9.85
2023-01-04T15:38:54.303Z,7.60
2023-01-04T15:41:40.830Z,9.32
2023-01-04T15:44:09.802Z,6.47
2023-01-04T15:46:36.464Z,10.20
2023-01-04T15:49:03.124Z,10.15
2023-01-04T15:51:29.773Z,9.95
2023-01-04T15:53:56.725Z,6.63
2023-01-04T15:56:23.400Z,6.72
2023-01-04T15:58:55.050Z,7.68
2023-01-04T16:01:22.459Z,9.57
2023-01-04T16:03:53.463Z,4.15
2023-01-04T16:06:20.580Z,7.03
2023-01-04T16:08:48.848Z,10.77
2023-01-04T16:11:19.542Z,9.18
2023-01-04T16:13:48.283Z,14.52
2023-01-04T16:16:15.716Z,7.35
2023-01-04T16:18:47.621Z,7.85
2023-01-04T16:21:15.675Z,7.25
2023-01-04T16:23:42.280Z,8.85
2023-01-04T16:26:11.532Z,7.57
2023-01-04T16:28:38.586Z,8.75
2023-01-04T16:31:06.407Z,12.57
2023-01-04T16:33:33.702Z,5.28
2023-01-04T16:36:02.857Z,6.63
2023-01-04T16:38:29.501Z,5.97
2023-01-04T16:40:57.587Z,8.23
2023-01-04T16:43:24.124Z,4.22
2023-01-04T16:45:50.820Z,7.07
2023-01-04T16:48:18.773Z,8.45
2023-01-04T16:50:45.751Z,3.60
2023-01-04T16:53:12.305Z,3.75
2023-01-04T16:55:38.847Z,5.80
2023-01-04T16:58:05.441Z,5.65
2023-01-04T17:00:32.040Z,8.75
2023-01-04T17:02:58.786Z,6.63
2023-01-04T17:05:25.384Z,12.40
2023-01-04T17:07:52.734Z,11.88
2023-01-04T17:10:22.850Z,9.88
2023-01-04T17:12:53.927Z,7.82
2023-01-04T17:15:42.488Z,7.97
2023-01-04T17:18:07.384Z,10.10
2023-01-04T17:20:33.967Z,10.90
2023-01-04T17:23:00.605Z,6.20
2023-01-04T17:25:27.203Z,7.70
2023-01-04T17:27:53.823Z,7.03
2023-01-04T17:30:20.424Z,6.00
2023-01-04T17:32:47.081Z,12.45
2023-01-04T17:35:13.779Z,13.40
2023-01-04T17:37:40.315Z,9.77
2023-01-04T17:40:07.362Z,16.25
2023-01-04T17:42:34.018Z,17.20
2023-01-04T17:45:00.558Z,20.13
2023-01-04T17:47:27.776Z,15.45
2023-01-04T17:49:54.337Z,11.50
2023-01-04T17:52:27.402Z,10.93
2023-01-04T17:54:57.445Z,10.50
2023-01-04T17:57:23.961Z,11.30
2023-01-04T17:59:50.631Z,11.27
2023-01-04T18:02:17.423Z,13.65
2023-01-04T18:04:44.009Z,15.70
2023-01-04T18:09:42.163Z,10.50
2023-01-04T18:12:08.832Z,10.02
2023-01-04T18:14:35.379Z,9.63
2023-01-04T18:17:02.030Z,10.93
2023-01-04T18:19:30.262Z,13.88
2023-01-04T18:21:57.901Z,11.43
2023-01-04T18:24:41.672Z,13.98
2023-01-04T18:27:26.856Z,12.73
2023-01-04T18:29:55.449Z,11.85
2023-01-04T18:32:23.563Z,8.68
2023-01-04T18:34:50.343Z,16.75
2023-01-04T18:37:18.565Z,8.57
2023-01-04T18:39:45.720Z,9.77
2023-01-04T18:42:12.315Z,9.95
2023-01-04T18:44:45.595Z,5.45
2023-01-04T18:47:15.836Z,7.65
2023-01-04T18:49:42.433Z,9.05
2023-01-04T18:52:09.042Z,12.57
2023-01-04T18:54:35.612Z,12.98
2023-01-04T18:57:02.171Z,13.35
2023-01-04T18:59:29.788Z,9.60
2023-01-04T19:02:01.237Z,7.18
2023-01-04T19:04:30.148Z,13.13
2023-01-04T19:06:56.733Z,9.35
2023-01-04T19:09:23.322Z,6.50
2023-01-04T19:11:50.218Z,10.20
2023-01-04T19:14:17.147Z,13.45
2023-01-04T19:16:43.807Z,7.32
2023-01-04T19:19:11.133Z,9.95
2023-01-04T19:21:37.908Z,13.98
2023-01-04T19:24:04.714Z,8.38
2023-01-04T19:26:31.281Z,9.70
2023-01-04T19:28:57.831Z,8.93
2023-01-04T19:31:24.412Z,16.85
2023-01-04T19:33:51.024Z,12.98
2023-01-04T19:36:18.987Z,11.18
2023-01-04T19:38:46.178Z,5.05
2023-01-04T19:41:20.958Z,17.38
2023-01-04T19:43:47.857Z,9.15
2023-01-04T19:46:14.668Z,10.68
2023-01-04T19:48:42.059Z,9.73
2023-01-04T19:51:12.140Z,15.57
2023-01-04T19:53:39.718Z,14.77
2023-01-04T19:56:07.167Z,9.57
2023-01-04T19:58:33.958Z,10.77
2023-01-04T20:01:00.724Z,14.98
2023-01-04T20:03:27.667Z,13.38
2023-01-04T20:05:55.218Z,13.88
2023-01-04T20:08:22.393Z,10.95
2023-01-04T20:10:58.125Z,10.23
2023-01-04T20:13:24.913Z,7.97
2023-01-04T20:15:51.761Z,9.75
2023-01-04T20:18:19.077Z,9.18
2023-01-04T20:20:46.521Z,10.73
2023-01-04T20:23:14.412Z,10.48
2023-01-04T20:25:43.031Z,9.35
2023-01-04T20:28:09.994Z,8.23
2023-01-04T20:30:37.216Z,10.93
2023-01-04T20:33:04.533Z,14.30
2023-01-04T20:35:31.484Z,9.43
2023-01-04T20:37:58.650Z,8.57
2023-01-04T20:40:26.438Z,13.20
2023-01-04T20:43:13.731Z,13.55
2023-01-04T20:45:46.089Z,11.38
2023-01-04T20:48:14.431Z,8.13
2023-01-04T20:50:41.808Z,7.13
2023-01-04T20:53:08.629Z,8.75
2023-01-04T20:55:41.177Z,7.63
2023-01-04T20:58:09.836Z,13.25
2023-01-04T21:00:37.284Z,8.15
2023-01-04T21:03:06.200Z,10.75
2023-01-04T21:05:43.523Z,12.30
2023-01-04T21:08:11.986Z,12.80
2023-01-04T21:10:41.734Z,11.13
2023-01-04T21:13:09.644Z,11.88
2023-01-04T21:15:37.398Z,9.60
2023-01-04T21:18:05.799Z,13.90
2023-01-04T21:20:33.389Z,8.07
2023-01-04T21:23:00.028Z,7.65
2023-01-04T21:25:26.639Z,12.00
2023-01-04T21:27:53.260Z,6.57
2023-01-04T21:30:19.889Z,9.25
2023-01-04T21:32:46.546Z,10.38
2023-01-04T21:35:13.120Z,8.52
2023-01-04T21:37:39.849Z,13.05
2023-01-04T21:40:06.858Z,8.25
2023-01-04T21:42:33.476Z,14.25
2023-01-04T21:45:00.148Z,11.48
2023-01-04T21:47:26.894Z,13.18
2023-01-04T21:49:53.452Z,9.90
2023-01-04T21:52:22.271Z,6.18
2023-01-04T21:54:48.922Z,10.93
2023-01-04T21:57:15.607Z,16.70
2023-01-04T21:59:42.212Z,7.30
2023-01-04T22:02:17.865Z,6.32
2023-01-04T22:04:45.716Z,4.20
2023-01-04T22:07:12.578Z,9.38
2023-01-04T22:09:39.339Z,7.53
2023-01-04T22:12:06.435Z,12.48
2023-01-04T22:14:33.674Z,10.07
2023-01-04T22:17:00.325Z,9.98
2023-01-04T22:19:27.034Z,11.57
2023-01-04T22:21:53.596Z,8.57
2023-01-04T22:24:20.599Z,9.10
2023-01-04T22:26:49.265Z,7.35
2023-01-04T22:29:15.923Z,7.57
2023-01-04T22:31:42.892Z,11.07
2023-01-04T22:34:09.538Z,8.60
2023-01-04T22:36:36.112Z,9.40
2023-01-04T22:39:02.723Z,10.40
2023-01-04T22:41:29.352Z,6.10
2023-01-04T22:46:35.069Z,8.35
2023-01-04T22:49:02.080Z,12.93
2023-01-04T22:51:29.829Z,6.25
2023-01-04T22:53:59.208Z,6.45
2023-01-04T22:56:26.383Z,11.02
2023-01-04T22:58:55.527Z,7.97
2023-01-04T23:01:25.695Z,6.65
2023-01-04T23:06:19.325Z,10.32
2023-01-04T23:08:45.883Z,10.32
2023-01-04T23:11:15.536Z,8.85
2023-01-04T23:13:42.596Z,7.53
2023-01-04T23:16:13.366Z,6.47
2023-01-04T23:18:40.486Z,9.10
2023-01-04T23:21:08.468Z,8.43
2023-01-04T23:23:35.673Z,6.57
2023-01-04T23:26:06.655Z,5.68
2023-01-04T23:28:36.072Z,6.43
2023-01-04T23:31:05.336Z,13.02
2023-01-04T23:33:35.869Z,9.05
2023-01-04T23:36:09.766Z,8.27
2023-01-04T23:38:37.061Z,6.90
2023-01-04T23:41:03.856Z,13.90
2023-01-04T23:43:30.432Z,14.55
2023-01-04T23:45:57.478Z,15.27
2023-01-04T23:48:24.292Z,10.52
2023-01-04T23:50:56.758Z,13.93
2023-01-04T23:53:24.463Z,8.57
2023-01-04T23:56:02.416Z,13.38
2023-01-04T23:58:31.447Z,15.68
